Corpus Christi International Airport Corpus Christi US
ICAO: KCRP
IATA: CRP
Category: Large
Scheduled Services: Yes

Elevation: 44 ft
TransAlt. 18000 ft.

Airport Communications:
APP/DEP:120.9
ATIS:126.8
CLNC DEL:118.55
GND:121.9
SAN ANGELO RDO:122.65
TWR:119.4
UNICOM:122.95

KCRP Zoom In..

Runways:

(A) RW 13 length 7508 ft width 150 ft
ILS 110.30 / hdg 129

(B) RW 17 length 6080 ft width 150 ft
LOC 110.30 / hdg 172

(C) RW 31 length 7508 ft width 150 ft
LOC 110.30 / hdg 309

(D) RW 35 length 6080 ft width 150 ft
ILS 109.50 / hdg 352

Location; KCRP
Day. 10 / Time. 07.51 Zulu
* Altimeter: 29.91
* Temperature: 21° c. 69.8°f.
* Wind from: 340° Speed 08 kn.
Dewpoint: 19° c.
Visibility: 10 Statute Miles.
Clouds: Overcast 1700 ft.

KCRP 100751Z 34008KT 10SM OVC017 21/19 A2991 RMK AO2 SLP127 T02110194


Wind From 340°
Speed 08 kn.

 
 
jpsmedia worldairports.se 2020   terms of use